Terminal Aerodrome Forecast
Issued by NWS

Home | Current Version | Previous Version | Text Only | Print | Product List | Glossary On
Versions: 1 2 3 4 5 6 7 8 9 10 11 12 13 14
000
FTUS46 KPDT 200316 AAA
TAFPSC
TAF AMD
KPSC 200316Z 2003/2024 23018G25KT P6SM VCSH SCT060 BKN090
     FM200700 22009KT P6SM BKN060 OVC090
     FM201600 23011KT P6SM -SHRA SCT040 OVC060=

USA.gov is the U.S. government's official web portal to all federal, state and local government web resources and services.